Time;durP1;ratioP1;P1;durP2;ratioP2;P2;SDS_P1;SDS_P2;PMS_P1;PMS_P2;Temp;Humidity;BMP_temperature;BMP_pressure;BME280_temperature;BME280_humidity;BME280_pressure;Samples;Min_cycle;Max_cycle;Signal;HPM_P1;HPM_P2
2023/03/05 00:01:56;;;;;;;6.60;2.07;;;3.00;99.90;;;;;;5021419;28;20310;-83
2023/03/05 00:04:23;;;;;;;7.17;2.30;;;3.00;99.90;;;;;;5021219;28;20220;-83
2023/03/05 00:06:51;;;;;;;11.57;2.77;;;3.00;99.90;;;;;;5021612;28;20246;-83
2023/03/05 00:09:17;;;;;;;11.33;2.47;;;3.00;99.90;;;;;;5021595;28;20208;-83
2023/03/05 00:11:44;;;;;;;9.30;2.83;;;3.00;99.90;;;;;;5022345;28;20197;-83
2023/03/05 00:14:12;;;;;;;9.70;2.77;;;3.00;99.90;;;;;;5021161;28;20231;-84
2023/03/05 00:16:39;;;;;;;6.27;2.13;;;3.00;99.90;;;;;;5020871;28;20218;-83
2023/03/05 00:19:06;;;;;;;12.60;2.33;;;3.00;99.90;;;;;;5021060;28;20576;-85
2023/03/05 00:21:35;;;;;;;13.10;2.53;;;3.00;99.90;;;;;;5025140;28;20291;-84
2023/03/05 00:24:05;;;;;;;9.40;3.10;;;2.90;99.90;;;;;;5024794;28;20212;-83
2023/03/05 00:26:35;;;;;;;6.57;2.27;;;2.90;99.90;;;;;;5025191;28;20224;-85
2023/03/05 00:29:02;;;;;;;11.00;2.47;;;2.90;99.90;;;;;;5025680;28;20314;-85
2023/03/05 00:31:32;;;;;;;12.27;2.83;;;2.90;99.90;;;;;;5025248;28;20200;-83
2023/03/05 00:34:02;;;;;;;8.00;2.27;;;2.90;99.90;;;;;;5022429;28;20255;-84
2023/03/05 00:36:29;;;;;;;7.50;2.37;;;2.90;99.90;;;;;;5014093;28;20560;-85
2023/03/05 00:38:56;;;;;;;7.60;1.90;;;2.80;99.90;;;;;;5023875;28;20588;-83
2023/03/05 00:41:25;;;;;;;11.10;2.77;;;2.80;99.90;;;;;;5025197;28;20220;-84
2023/03/05 00:43:51;;;;;;;4.47;2.00;;;2.80;99.90;;;;;;5027736;28;20214;-83
2023/03/05 00:46:18;;;;;;;7.23;2.60;;;2.90;99.90;;;;;;5021489;28;20601;-85
2023/03/05 00:48:45;;;;;;;5.83;1.87;;;2.90;99.90;;;;;;5021593;28;20246;-83
2023/03/05 00:51:12;;;;;;;6.30;2.17;;;2.90;99.90;;;;;;5023937;28;20200;-84
2023/03/05 00:53:39;;;;;;;8.37;2.30;;;2.90;99.90;;;;;;5018310;28;20193;-83
2023/03/05 00:56:06;;;;;;;9.87;2.33;;;2.90;99.90;;;;;;5019975;28;20204;-84
2023/03/05 00:58:35;;;;;;;6.30;2.13;;;3.00;99.90;;;;;;5018492;28;20646;-83
2023/03/05 01:01:02;;;;;;;6.80;2.27;;;2.90;99.90;;;;;;5020045;28;20288;-83
2023/03/05 01:03:29;;;;;;;7.97;2.60;;;2.90;99.90;;;;;;5016236;28;20204;-83
2023/03/05 01:05:58;;;;;;;6.57;2.07;;;2.90;99.90;;;;;;5022769;28;20210;-85
2023/03/05 01:08:25;;;;;;;10.17;2.07;;;2.90;99.90;;;;;;5013292;28;20297;-83
2023/03/05 01:10:52;;;;;;;9.17;2.20;;;2.90;99.90;;;;;;5020288;28;20204;-82
2023/03/05 01:13:19;;;;;;;9.50;2.70;;;2.90;99.90;;;;;;5032631;28;20196;-83
2023/03/05 01:15:49;;;;;;;9.83;2.50;;;2.90;99.90;;;;;;5015112;28;20678;-83
2023/03/05 01:18:17;;;;;;;11.67;2.37;;;2.90;99.90;;;;;;5023296;28;20222;-83
2023/03/05 01:20:44;;;;;;;8.53;2.47;;;3.00;99.90;;;;;;5021869;28;20235;-84
2023/03/05 01:23:11;;;;;;;17.43;2.70;;;2.90;99.90;;;;;;5023513;28;20564;-85
2023/03/05 01:25:38;;;;;;;17.03;3.00;;;2.90;99.90;;;;;;5021830;28;20279;-83
2023/03/05 01:28:05;;;;;;;6.67;2.40;;;2.90;99.90;;;;;;5020515;28;20228;-85
2023/03/05 01:30:33;;;;;;;7.80;2.17;;;2.90;99.90;;;;;;5021514;28;20260;-83
2023/03/05 01:33:02;;;;;;;6.97;2.20;;;2.90;99.90;;;;;;5021791;28;20204;-85
2023/03/05 01:35:29;;;;;;;10.53;2.60;;;2.90;99.90;;;;;;5021919;28;20205;-84
2023/03/05 01:37:56;;;;;;;8.57;2.33;;;2.90;99.90;;;;;;5020248;28;20232;-85
2023/03/05 01:40:25;;;;;;;8.47;2.60;;;2.90;99.90;;;;;;5021281;28;20230;-84
2023/03/05 01:42:58;;;;;;;13.20;2.47;;;2.90;99.90;;;;;;5022560;28;20225;-83
2023/03/05 01:45:25;;;;;;;11.23;2.87;;;2.90;99.90;;;;;;5022562;28;20215;-83
2023/03/05 01:47:52;;;;;;;11.83;2.53;;;2.90;99.90;;;;;;5020018;28;20228;-83
2023/03/05 01:50:23;;;;;;;10.53;2.47;;;2.90;99.90;;;;;;5020317;28;20200;-83
2023/03/05 01:52:56;;;;;;;6.07;2.43;;;2.90;99.90;;;;;;5021965;28;20192;-83
2023/03/05 01:55:25;;;;;;;10.67;2.50;;;3.00;99.90;;;;;;5012172;28;20208;-83
2023/03/05 01:57:55;;;;;;;10.97;2.77;;;3.00;99.90;;;;;;5019508;28;20223;-82
2023/03/05 02:00:27;;;;;;;9.63;2.60;;;3.00;99.90;;;;;;5020756;28;20721;-83
2023/03/05 02:02:55;;;;;;;11.00;2.43;;;3.00;99.90;;;;;;5019515;28;20728;-83
2023/03/05 02:05:26;;;;;;;8.73;2.50;;;3.00;99.90;;;;;;5019868;28;20197;-84
2023/03/05 02:07:54;;;;;;;7.00;2.70;;;3.00;99.90;;;;;;5022705;28;20609;-82
2023/03/05 02:10:24;;;;;;;8.93;2.60;;;3.00;99.90;;;;;;5023154;28;20675;-83
2023/03/05 02:12:53;;;;;;;9.43;2.97;;;3.00;99.90;;;;;;5022779;28;20547;-83
2023/03/05 02:15:20;;;;;;;10.30;2.67;;;3.00;99.90;;;;;;5022820;28;20586;-83
2023/03/05 02:17:47;;;;;;;8.63;3.23;;;3.00;99.90;;;;;;5023047;28;20212;-83
2023/03/05 02:20:17;;;;;;;7.97;3.00;;;2.90;99.90;;;;;;5022928;28;20208;-85
2023/03/05 02:22:45;;;;;;;6.93;3.40;;;3.10;99.90;;;;;;5003557;28;20232;-83
2023/03/05 02:25:14;;;;;;;11.70;3.97;;;3.00;99.90;;;;;;5010769;28;20192;-83
2023/03/05 02:27:45;;;;;;;10.07;3.37;;;3.00;99.90;;;;;;5022493;28;20216;-84
2023/03/05 02:30:13;;;;;;;8.83;3.73;;;3.00;99.90;;;;;;5023542;28;20572;-83
2023/03/05 02:32:39;;;;;;;9.93;3.47;;;3.10;99.90;;;;;;5023131;28;20203;-83
2023/03/05 02:35:07;;;;;;;9.67;3.17;;;3.10;99.90;;;;;;5022129;28;20227;-83
2023/03/05 02:37:33;;;;;;;8.53;3.33;;;3.10;99.90;;;;;;5022003;28;20259;-84
2023/03/05 02:40:02;;;;;;;15.17;3.83;;;3.10;99.90;;;;;;5018586;28;20204;-83
2023/03/05 02:42:32;;;;;;;12.83;4.17;;;3.10;99.90;;;;;;5018733;28;20254;-84
2023/03/05 02:44:59;;;;;;;13.37;3.77;;;3.00;99.90;;;;;;5020387;28;20257;-83
2023/03/05 02:47:26;;;;;;;15.63;3.80;;;3.10;99.90;;;;;;5019028;28;20238;-84
2023/03/05 02:49:53;;;;;;;7.73;3.10;;;3.10;99.90;;;;;;5019792;28;20196;-83
2023/03/05 02:52:22;;;;;;;10.27;3.03;;;3.10;99.90;;;;;;5019134;28;20208;-82
2023/03/05 02:54:49;;;;;;;12.17;3.87;;;3.10;99.90;;;;;;5018924;28;20262;-83
2023/03/05 02:57:17;;;;;;;7.37;2.97;;;3.10;99.90;;;;;;5020156;28;20224;-84
2023/03/05 02:59:44;;;;;;;9.70;2.77;;;3.10;99.90;;;;;;5018079;28;20196;-83
2023/03/05 03:02:11;;;;;;;10.57;3.00;;;3.10;99.90;;;;;;5018516;28;20220;-83
2023/03/05 03:04:38;;;;;;;12.73;3.23;;;3.00;99.90;;;;;;5018859;28;20200;-83
2023/03/05 03:07:05;;;;;;;9.33;2.60;;;3.00;99.90;;;;;;5018183;28;20283;-85
2023/03/05 03:09:33;;;;;;;8.67;3.10;;;3.10;99.90;;;;;;5018944;28;20213;-83
2023/03/05 03:12:00;;;;;;;6.37;2.60;;;3.00;99.90;;;;;;5019879;28;20196;-83
2023/03/05 03:14:31;;;;;;;13.67;2.80;;;3.00;99.90;;;;;;5019848;28;20211;-84
2023/03/05 03:16:58;;;;;;;10.53;3.10;;;3.00;99.90;;;;;;5019143;28;20204;-83
2023/03/05 03:19:25;;;;;;;8.03;2.90;;;3.00;99.90;;;;;;5020514;28;20496;-83
2023/03/05 03:21:53;;;;;;;11.43;2.83;;;3.00;99.90;;;;;;5019923;28;20291;-84
2023/03/05 03:24:20;;;;;;;7.20;2.70;;;3.00;99.90;;;;;;5020376;28;20208;-84
2023/03/05 03:26:48;;;;;;;12.90;3.30;;;3.10;99.90;;;;;;5019859;28;20563;-84
2023/03/05 03:29:15;;;;;;;6.73;2.67;;;3.10;99.90;;;;;;5019433;28;20228;-83
2023/03/05 03:31:44;;;;;;;6.53;2.50;;;3.10;99.90;;;;;;5018363;28;20197;-84
2023/03/05 03:34:11;;;;;;;11.13;2.77;;;3.10;99.90;;;;;;5019563;28;20691;-83
2023/03/05 03:36:38;;;;;;;7.60;2.10;;;3.10;99.90;;;;;;4999693;28;20220;-85
2023/03/05 03:39:05;;;;;;;6.40;1.87;;;3.10;99.90;;;;;;5027384;28;20220;-84
2023/03/05 03:41:33;;;;;;;4.50;2.30;;;3.00;99.90;;;;;;5010474;28;20207;-85
2023/03/05 03:44:01;;;;;;;5.20;1.80;;;3.00;99.90;;;;;;5013740;28;20690;-83
2023/03/05 03:46:29;;;;;;;4.30;1.30;;;2.90;99.90;;;;;;5017407;28;20207;-85
2023/03/05 03:48:57;;;;;;;5.33;2.00;;;2.80;99.90;;;;;;5029326;28;20222;-83
2023/03/05 03:51:23;;;;;;;4.87;2.40;;;2.70;99.90;;;;;;5030627;28;20207;-84
2023/03/05 03:53:50;;;;;;;5.47;2.00;;;2.70;99.90;;;;;;5022679;28;20218;-83
2023/03/05 03:56:17;;;;;;;7.30;1.90;;;2.60;99.90;;;;;;5024407;28;20219;-84
2023/03/05 03:58:44;;;;;;;3.87;2.00;;;2.60;99.90;;;;;;5024706;28;20240;-83
2023/03/05 04:01:11;;;;;;;5.87;2.17;;;2.50;99.90;;;;;;5023385;28;20485;-83
2023/03/05 04:03:38;;;;;;;4.93;2.00;;;2.50;99.90;;;;;;5031384;28;20247;-84
2023/03/05 04:06:06;;;;;;;6.27;1.80;;;2.60;99.90;;;;;;5031636;28;20206;-83
2023/03/05 04:08:33;;;;;;;3.67;2.10;;;2.50;99.90;;;;;;5022609;28;20228;-83
2023/03/05 04:11:01;;;;;;;6.57;2.57;;;2.50;99.90;;;;;;5024726;28;20207;-85
2023/03/05 04:13:28;;;;;;;5.97;2.43;;;2.50;99.90;;;;;;5005870;28;20197;-85
2023/03/05 04:15:55;;;;;;;8.27;3.53;;;2.50;99.90;;;;;;5007914;28;20209;-85
2023/03/05 04:18:22;;;;;;;5.87;2.37;;;2.40;99.90;;;;;;5022825;28;20216;-84
2023/03/05 04:20:49;;;;;;;7.70;2.47;;;2.40;99.90;;;;;;5026310;28;20212;-84
2023/03/05 04:23:17;;;;;;;7.50;2.50;;;2.40;99.90;;;;;;5023233;28;20227;-83
2023/03/05 04:25:44;;;;;;;6.27;2.60;;;2.40;99.90;;;;;;5024364;28;20287;-84
2023/03/05 04:28:11;;;;;;;7.00;2.63;;;2.40;99.90;;;;;;5024311;28;20760;-83
2023/03/05 04:30:38;;;;;;;11.60;2.77;;;2.40;99.90;;;;;;5025087;28;20680;-83
2023/03/05 04:33:05;;;;;;;8.13;2.83;;;2.40;99.90;;;;;;5023623;28;20208;-83
2023/03/05 04:35:32;;;;;;;7.83;3.10;;;2.40;99.90;;;;;;5025284;28;20196;-83
2023/03/05 04:37:58;;;;;;;10.60;3.47;;;2.40;99.90;;;;;;5024919;28;20220;-83
2023/03/05 04:40:27;;;;;;;9.77;3.50;;;2.50;99.90;;;;;;5025196;28;20210;-85
2023/03/05 04:42:53;;;;;;;9.23;3.10;;;2.50;99.90;;;;;;5023597;28;20221;-84
2023/03/05 04:45:20;;;;;;;9.53;3.17;;;2.60;99.90;;;;;;5007854;28;20197;-83
2023/03/05 04:47:47;;;;;;;7.57;2.90;;;2.60;99.90;;;;;;5006089;28;20232;-83
2023/03/05 04:50:14;;;;;;;7.87;3.00;;;2.60;99.90;;;;;;5005313;28;20287;-85
2023/03/05 04:52:42;;;;;;;8.13;3.50;;;2.60;99.90;;;;;;5009049;28;20546;-83
2023/03/05 04:55:10;;;;;;;4.20;3.00;;;2.60;99.90;;;;;;5024181;28;20295;-83
2023/03/05 04:57:39;;;;;;;6.40;2.57;;;2.50;99.90;;;;;;5025949;28;20228;-86
2023/03/05 05:00:12;;;;;;;8.90;2.90;;;2.50;99.90;;;;;;5004891;28;20565;-83
2023/03/05 05:02:39;;;;;;;7.53;3.33;;;2.60;99.90;;;;;;5011954;28;20213;-84
2023/03/05 05:05:07;;;;;;;8.43;3.30;;;2.60;99.90;;;;;;5015470;28;20196;-84
2023/03/05 05:07:34;;;;;;;9.50;2.90;;;2.60;99.90;;;;;;5043865;28;20739;-84
2023/03/05 05:10:00;;;;;;;7.03;3.23;;;2.60;99.90;;;;;;5035775;28;20680;-83
2023/03/05 05:12:28;;;;;;;5.90;3.50;;;2.60;99.90;;;;;;5022345;28;20207;-83
2023/03/05 05:14:57;;;;;;;6.87;3.07;;;2.50;99.90;;;;;;5021221;28;20196;-86
2023/03/05 05:17:24;;;;;;;6.57;3.20;;;2.60;99.90;;;;;;5022176;28;20326;-83
2023/03/05 05:19:51;;;;;;;7.10;2.87;;;2.50;99.90;;;;;;5021538;28;20204;-85
2023/03/05 05:22:18;;;;;;;10.07;2.93;;;2.50;99.90;;;;;;5022733;28;20654;-85
2023/03/05 05:24:45;;;;;;;6.63;2.80;;;2.50;99.90;;;;;;5021810;28;20200;-84
2023/03/05 05:27:11;;;;;;;9.77;3.37;;;2.50;99.90;;;;;;5022737;28;20215;-83
2023/03/05 05:29:38;;;;;;;8.97;3.30;;;2.50;99.90;;;;;;5023486;28;20287;-83
2023/03/05 05:32:07;;;;;;;7.83;2.90;;;2.50;99.90;;;;;;5023855;28;20580;-85
2023/03/05 05:34:34;;;;;;;6.73;3.20;;;2.50;99.90;;;;;;5023264;28;20196;-83
2023/03/05 05:37:00;;;;;;;7.30;3.30;;;2.60;99.90;;;;;;5020242;28;20208;-85
2023/03/05 05:39:27;;;;;;;8.10;2.93;;;2.50;99.90;;;;;;5003049;28;20219;-83
2023/03/05 05:41:54;;;;;;;5.57;2.77;;;2.50;99.90;;;;;;5041914;28;20299;-83
2023/03/05 05:44:21;;;;;;;9.53;3.20;;;2.50;99.90;;;;;;5043099;28;20202;-83
2023/03/05 05:46:48;;;;;;;9.97;3.43;;;2.60;99.90;;;;;;5030010;28;20219;-84
2023/03/05 05:49:16;;;;;;;7.70;2.97;;;2.60;99.90;;;;;;5022272;28;20220;-83
2023/03/05 05:51:43;;;;;;;7.20;3.57;;;2.60;99.90;;;;;;5022714;28;20196;-82
2023/03/05 05:54:12;;;;;;;9.03;2.53;;;2.60;99.90;;;;;;5024225;28;20680;-84
2023/03/05 05:56:39;;;;;;;7.50;2.83;;;2.60;99.90;;;;;;5024982;28;20265;-85
2023/03/05 05:59:06;;;;;;;12.70;3.00;;;2.60;99.90;;;;;;5025058;28;20247;-83
2023/03/05 06:01:35;;;;;;;10.30;3.07;;;2.60;99.90;;;;;;5025657;28;20248;-83
2023/03/05 06:04:02;;;;;;;7.37;3.00;;;2.60;99.90;;;;;;5017689;28;20307;-82
2023/03/05 06:06:33;;;;;;;12.60;2.70;;;2.60;99.90;;;;;;5034305;28;20283;-84
2023/03/05 06:09:01;;;;;;;7.17;3.07;;;2.60;99.90;;;;;;5031483;28;20681;-83
2023/03/05 06:11:28;;;;;;;5.27;2.40;;;2.60;99.90;;;;;;5015508;28;20272;-82
2023/03/05 06:13:55;;;;;;;3.83;2.07;;;2.70;99.90;;;;;;5022828;28;20222;-83
2023/03/05 06:16:26;;;;;;;3.53;2.10;;;2.70;99.90;;;;;;5019997;28;20267;-81
2023/03/05 06:18:53;;;;;;;5.40;2.40;;;2.60;99.90;;;;;;5020969;28;20240;-82
2023/03/05 06:21:21;;;;;;;7.93;3.17;;;2.70;99.90;;;;;;5019436;28;20232;-82
2023/03/05 06:23:50;;;;;;;6.77;3.20;;;2.70;99.90;;;;;;5023765;28;20726;-84
2023/03/05 06:26:19;;;;;;;8.53;2.00;;;2.70;99.90;;;;;;5016053;28;20201;-84
2023/03/05 06:28:46;;;;;;;6.17;2.13;;;2.70;99.90;;;;;;5022420;28;20224;-83
2023/03/05 06:31:16;;;;;;;4.93;2.20;;;2.80;99.90;;;;;;5021756;28;20211;-82
2023/03/05 06:33:43;;;;;;;8.30;2.57;;;2.80;99.90;;;;;;5022349;28;20243;-82
2023/03/05 06:36:12;;;;;;;4.80;1.93;;;2.80;99.90;;;;;;5027111;28;20215;-82
2023/03/05 06:38:40;;;;;;;4.77;2.80;;;2.80;99.90;;;;;;5011632;28;20227;-84
2023/03/05 06:41:10;;;;;;;5.03;2.60;;;2.80;99.90;;;;;;5023779;28;20208;-83
2023/03/05 06:43:38;;;;;;;6.50;2.47;;;2.90;99.90;;;;;;5023714;28;20252;-83
2023/03/05 06:46:07;;;;;;;5.73;2.50;;;2.90;99.90;;;;;;5011803;28;20577;-83
2023/03/05 06:48:34;;;;;;;9.30;2.30;;;3.00;99.90;;;;;;5013534;28;20224;-82
2023/03/05 06:51:00;;;;;;;4.23;2.23;;;3.00;99.90;;;;;;5019873;28;20202;-84
2023/03/05 06:53:28;;;;;;;9.50;2.87;;;3.00;99.90;;;;;;5017435;28;20197;-83
2023/03/05 06:55:55;;;;;;;4.13;2.30;;;3.00;99.90;;;;;;5018708;28;20214;-83
2023/03/05 06:58:23;;;;;;;9.53;3.37;;;3.00;99.90;;;;;;5027584;28;20228;-82
2023/03/05 07:00:50;;;;;;;10.37;2.60;;;3.00;99.90;;;;;;5025105;28;20268;-82
2023/03/05 07:03:17;;;;;;;7.60;2.93;;;3.00;99.90;;;;;;5015462;28;20212;-82
2023/03/05 07:05:44;;;;;;;6.77;2.90;;;3.00;99.90;;;;;;5020089;28;20264;-83
2023/03/05 07:08:11;;;;;;;8.53;2.93;;;3.00;99.90;;;;;;5023680;28;20225;-82
2023/03/05 07:10:39;;;;;;;5.53;2.83;;;3.00;99.90;;;;;;5017140;28;20201;-83
2023/03/05 07:13:06;;;;;;;4.93;2.70;;;3.00;99.90;;;;;;5015440;28;20208;-81
2023/03/05 07:15:37;;;;;;;5.60;2.70;;;3.00;99.90;;;;;;5030195;28;20208;-82
2023/03/05 07:18:04;;;;;;;8.20;2.97;;;3.00;99.90;;;;;;5023612;28;20228;-83
2023/03/05 07:20:30;;;;;;;5.70;2.83;;;3.00;99.90;;;;;;5021450;28;20203;-83
2023/03/05 07:22:57;;;;;;;7.03;3.00;;;3.00;99.90;;;;;;5025500;28;20243;-83
2023/03/05 07:25:24;;;;;;;5.07;3.13;;;3.00;99.90;;;;;;5016398;28;20205;-84
2023/03/05 07:27:51;;;;;;;4.37;2.80;;;3.10;99.90;;;;;;5013812;28;20224;-82
2023/03/05 07:30:18;;;;;;;7.53;3.00;;;3.10;99.90;;;;;;5013655;28;20196;-81
2023/03/05 07:32:47;;;;;;;4.20;2.67;;;3.20;99.90;;;;;;5020457;28;20231;-82
2023/03/05 07:35:14;;;;;;;5.90;2.53;;;3.20;99.90;;;;;;5015440;28;20204;-81
2023/03/05 07:37:41;;;;;;;8.50;2.90;;;3.30;99.90;;;;;;5026156;28;20224;-84
2023/03/05 07:40:09;;;;;;;7.20;2.97;;;3.40;99.90;;;;;;5023193;28;20197;-83
2023/03/05 07:42:36;;;;;;;7.87;2.73;;;3.40;99.90;;;;;;5017286;28;20240;-82
2023/03/05 07:45:03;;;;;;;7.53;2.50;;;3.50;99.90;;;;;;5018025;28;20197;-83
2023/03/05 07:47:30;;;;;;;7.00;2.87;;;3.50;99.90;;;;;;5017535;28;20252;-83
2023/03/05 07:49:58;;;;;;;5.73;2.70;;;3.50;99.90;;;;;;5015401;28;20242;-82
2023/03/05 07:52:25;;;;;;;5.20;2.73;;;3.50;99.90;;;;;;5023997;28;20210;-82
2023/03/05 07:54:52;;;;;;;5.33;2.57;;;3.40;99.90;;;;;;5020139;28;20231;-81
2023/03/05 07:57:19;;;;;;;5.43;2.60;;;3.50;99.90;;;;;;5016569;28;20288;-82
2023/03/05 07:59:45;;;;;;;6.30;2.90;;;3.50;99.90;;;;;;5019943;28;20634;-82
2023/03/05 08:02:13;;;;;;;3.80;2.27;;;3.50;99.90;;;;;;5014741;28;20287;-83
2023/03/05 08:04:41;;;;;;;8.13;3.17;;;3.50;99.90;;;;;;5017815;28;20693;-83
2023/03/05 08:07:09;;;;;;;6.13;3.10;;;3.40;99.90;;;;;;5017612;28;20218;-82
2023/03/05 08:09:38;;;;;;;5.10;2.97;;;3.40;99.90;;;;;;5019605;28;20209;-81
2023/03/05 08:12:05;;;;;;;5.23;1.80;;;3.40;99.90;;;;;;5025268;28;20220;-82
2023/03/05 08:14:32;;;;;;;5.90;2.30;;;3.50;99.90;;;;;;5019786;28;20838;-82
2023/03/05 08:16:59;;;;;;;6.07;2.60;;;3.50;99.90;;;;;;5020768;28;20299;-82
2023/03/05 08:19:26;;;;;;;4.90;2.47;;;3.50;99.90;;;;;;5030308;28;20214;-82
2023/03/05 08:21:52;;;;;;;7.20;2.47;;;3.60;99.90;;;;;;5020874;28;20654;-81
2023/03/05 08:24:22;;;;;;;3.17;2.37;;;3.60;99.90;;;;;;5017749;28;20643;-81
2023/03/05 08:26:49;;;;;;;8.40;2.60;;;3.70;99.90;;;;;;5019619;28;20239;-82
2023/03/05 08:29:15;;;;;;;7.77;3.07;;;3.80;99.90;;;;;;5020435;28;20235;-82
2023/03/05 08:31:46;;;;;;;7.53;2.37;;;3.70;99.90;;;;;;5020615;28;20283;-81
2023/03/05 08:34:13;;;;;;;6.93;2.60;;;3.70;99.90;;;;;;5019316;28;20204;-81
2023/03/05 08:36:39;;;;;;;8.40;3.03;;;3.60;99.90;;;;;;5026276;28;20212;-81
2023/03/05 08:39:07;;;;;;;6.37;2.33;;;3.70;99.90;;;;;;5015416;28;20280;-82
2023/03/05 08:41:36;;;;;;;6.77;2.80;;;3.80;99.90;;;;;;5028548;28;20196;-81
2023/03/05 08:44:03;;;;;;;8.10;2.43;;;3.80;99.90;;;;;;5029112;28;20226;-81
2023/03/05 08:46:30;;;;;;;4.40;2.10;;;3.90;99.90;;;;;;5024949;28;20240;-82
2023/03/05 08:48:57;;;;;;;3.23;2.03;;;3.90;99.90;;;;;;5029537;28;20228;-81
2023/03/05 08:51:25;;;;;;;4.77;2.17;;;3.90;99.90;;;;;;5026668;28;20219;-81
2023/03/05 08:53:53;;;;;;;2.60;2.07;;;3.90;99.90;;;;;;5025680;28;20188;-81
2023/03/05 08:56:20;;;;;;;3.03;1.80;;;3.80;99.90;;;;;;5021070;28;20204;-81
2023/03/05 08:58:48;;;;;;;6.23;2.60;;;3.80;99.90;;;;;;5035408;28;20224;-82
2023/03/05 09:01:15;;;;;;;3.37;2.20;;;3.80;99.90;;;;;;5028961;28;20200;-81
2023/03/05 09:03:42;;;;;;;3.87;2.20;;;3.90;99.90;;;;;;5021558;28;20217;-82
2023/03/05 09:06:11;;;;;;;3.20;1.90;;;3.90;99.90;;;;;;5030217;28;20223;-82
2023/03/05 09:08:39;;;;;;;4.47;2.20;;;4.10;99.90;;;;;;5014863;28;20607;-81
2023/03/05 09:11:08;;;;;;;3.30;1.90;;;4.10;99.90;;;;;;5018591;28;20331;-81
2023/03/05 09:13:35;;;;;;;6.07;2.47;;;4.10;99.90;;;;;;5017711;28;20227;-81
2023/03/05 09:16:06;;;;;;;4.33;2.30;;;4.30;99.90;;;;;;5025683;28;20228;-82
2023/03/05 09:18:35;;;;;;;4.40;2.73;;;4.40;99.90;;;;;;5020174;28;20243;-82
2023/03/05 09:21:05;;;;;;;6.07;2.33;;;4.20;99.90;;;;;;5025080;28;20215;-82
2023/03/05 09:23:31;;;;;;;8.07;2.20;;;4.40;99.90;;;;;;5016779;28;20517;-83
2023/03/05 09:25:58;;;;;;;4.80;2.40;;;4.30;99.90;;;;;;5010661;28;20590;-84
2023/03/05 09:28:25;;;;;;;2.57;1.90;;;4.30;99.90;;;;;;5014109;28;20228;-84
2023/03/05 09:30:52;;;;;;;4.17;2.40;;;4.30;99.90;;;;;;5024712;28;20295;-83
2023/03/05 09:33:20;;;;;;;3.90;2.73;;;4.30;99.90;;;;;;5020576;28;20265;-84
2023/03/05 09:35:48;;;;;;;3.87;2.17;;;4.30;99.90;;;;;;5020783;28;20211;-84
2023/03/05 09:38:14;;;;;;;4.57;2.57;;;4.30;99.90;;;;;;5027437;28;20233;-84
2023/03/05 09:40:48;;;;;;;4.13;1.90;;;4.20;99.90;;;;;;5016088;28;20205;-84
2023/03/05 09:43:30;;;;;;;6.00;2.67;;;4.40;99.90;;;;;;5019713;28;20204;-83
2023/03/05 09:46:13;;;;;;;8.80;2.10;;;4.50;99.90;;;;;;5010757;28;20208;-81
2023/03/05 09:48:50;;;;;;;4.63;2.33;;;4.50;99.90;;;;;;5031555;28;20215;-83
2023/03/05 09:51:23;;;;;;;2.50;2.20;;;4.50;99.90;;;;;;5019914;28;20290;-82
2023/03/05 09:53:56;;;;;;;4.40;2.00;;;4.20;99.90;;;;;;5019257;28;20204;-82
2023/03/05 09:56:26;;;;;;;5.47;2.07;;;4.00;99.90;;;;;;5018396;28;20559;-81
2023/03/05 09:58:56;;;;;;;4.73;2.30;;;4.10;99.90;;;;;;5018563;28;20230;-82
2023/03/05 10:01:28;;;;;;;6.93;2.03;;;4.30;99.90;;;;;;5015075;28;20201;-82
2023/03/05 10:04:00;;;;;;;5.80;2.03;;;4.50;99.90;;;;;;5020295;28;20240;-82
2023/03/05 10:06:30;;;;;;;3.37;1.97;;;5.00;99.90;;;;;;5011948;28;20204;-83
2023/03/05 10:09:02;;;;;;;4.37;2.00;;;5.10;99.90;;;;;;5016564;28;20228;-81
2023/03/05 10:11:39;;;;;;;6.80;2.07;;;5.10;99.90;;;;;;5023568;28;20284;-81
2023/03/05 10:14:12;;;;;;;6.37;2.00;;;5.10;99.90;;;;;;5012514;28;20247;-81
2023/03/05 10:17:03;;;;;;;2.70;2.13;;;5.20;99.90;;;;;;5017293;28;20197;-81
2023/03/05 10:19:49;;;;;;;2.60;1.80;;;5.30;99.90;;;;;;5015741;28;20208;-82
2023/03/05 10:22:20;;;;;;;2.77;1.67;;;5.30;99.90;;;;;;5013054;28;20192;-81
2023/03/05 10:25:06;;;;;;;3.33;2.00;;;5.20;99.90;;;;;;5011577;28;20611;-80
2023/03/05 10:27:46;;;;;;;3.13;2.23;;;5.20;99.90;;;;;;5001023;28;20230;-81
2023/03/05 10:30:26;;;;;;;5.53;2.63;;;5.20;99.90;;;;;;5003620;28;20470;-82
2023/03/05 10:33:03;;;;;;;7.50;2.07;;;5.40;99.90;;;;;;5009845;28;20219;-81
2023/03/05 10:35:48;;;;;;;6.20;2.13;;;5.50;99.90;;;;;;5020992;28;20208;-81
2023/03/05 10:38:39;;;;;;;3.70;1.67;;;5.40;99.90;;;;;;5016135;28;20221;-81
2023/03/05 10:41:16;;;;;;;3.20;1.60;;;5.30;99.90;;;;;;5014466;28;20215;-82
2023/03/05 10:43:50;;;;;;;5.37;2.13;;;5.50;99.90;;;;;;5021502;28;20235;-81
2023/03/05 10:46:19;;;;;;;4.37;2.30;;;6.00;99.90;;;;;;5016416;28;20200;-82
2023/03/05 10:48:51;;;;;;;4.80;2.37;;;5.90;99.90;;;;;;5019725;28;20228;-82
2023/03/05 10:51:22;;;;;;;5.40;2.80;;;6.50;99.90;;;;;;5027426;28;20558;-82
2023/03/05 10:53:55;;;;;;;3.73;1.80;;;6.90;99.90;;;;;;5026455;28;20207;-81
2023/03/05 10:56:24;;;;;;;2.90;2.07;;;6.60;99.90;;;;;;5014265;28;20208;-81
2023/03/05 10:58:51;;;;;;;4.63;2.07;;;6.50;99.90;;;;;;5018648;28;20244;-81
2023/03/05 11:01:23;;;;;;;3.87;2.13;;;6.80;99.90;;;;;;5032552;28;20283;-82
2023/03/05 11:03:54;;;;;;;4.67;1.80;;;6.40;99.90;;;;;;5016347;28;20208;-82
2023/03/05 11:06:34;;;;;;;5.97;2.20;;;6.10;99.90;;;;;;5032636;28;20292;-83
2023/03/05 11:09:20;;;;;;;6.03;2.40;;;6.20;99.90;;;;;;5022846;28;20235;-82
2023/03/05 11:12:05;;;;;;;5.27;2.90;;;6.30;99.90;;;;;;5014740;28;20207;-82
2023/03/05 11:14:33;;;;;;;4.70;1.83;;;6.10;99.90;;;;;;5016952;28;20243;-84
2023/03/05 11:17:01;;;;;;;3.77;2.00;;;6.10;99.90;;;;;;5014721;28;20213;-82
2023/03/05 11:19:31;;;;;;;7.33;1.77;;;6.00;99.90;;;;;;5011489;28;20211;-81
2023/03/05 11:22:16;;;;;;;4.80;1.83;;;5.80;99.90;;;;;;5029246;28;20258;-84
2023/03/05 11:24:45;;;;;;;3.80;1.73;;;5.70;99.90;;;;;;5013600;28;20228;-84
2023/03/05 11:27:31;;;;;;;5.40;2.10;;;5.50;99.90;;;;;;5016142;28;20207;-84
2023/03/05 11:29:59;;;;;;;3.03;2.07;;;5.40;99.90;;;;;;5018060;28;20556;-83
2023/03/05 11:32:27;;;;;;;5.33;2.40;;;5.30;99.90;;;;;;5018504;28;20743;-83
2023/03/05 11:34:56;;;;;;;4.10;2.00;;;5.20;99.90;;;;;;5027913;28;20281;-84
2023/03/05 11:37:26;;;;;;;6.27;2.17;;;5.10;99.90;;;;;;5020999;28;20351;-85
2023/03/05 11:40:18;;;;;;;10.83;2.40;;;5.10;99.90;;;;;;5028093;28;20219;-86
2023/03/05 11:42:45;;;;;;;3.67;1.93;;;5.10;99.90;;;;;;5016672;28;20200;-82
2023/03/05 11:45:17;;;;;;;6.40;2.00;;;4.80;99.90;;;;;;5009510;28;20216;-85
2023/03/05 11:47:46;;;;;;;6.30;3.37;;;4.60;99.90;;;;;;5023144;28;20225;-84
2023/03/05 11:50:21;;;;;;;2.87;2.00;;;4.70;99.90;;;;;;5021728;28;20291;-83
2023/03/05 11:52:52;;;;;;;6.70;3.20;;;4.80;99.90;;;;;;5013946;28;20208;-83
2023/03/05 11:55:21;;;;;;;17.63;8.30;;;4.90;99.90;;;;;;5016945;28;20309;-84
2023/03/05 11:57:53;;;;;;;8.00;4.93;;;5.00;99.90;;;;;;5015234;28;20224;-84
2023/03/05 12:00:27;;;;;;;9.30;3.63;;;5.00;99.90;;;;;;5018564;28;20212;-82
2023/03/05 12:02:56;;;;;;;7.20;5.03;;;5.10;99.90;;;;;;5022584;28;20264;-84
2023/03/05 12:05:23;;;;;;;3.93;2.67;;;5.00;99.90;;;;;;5022912;28;20247;-84
2023/03/05 12:07:55;;;;;;;4.77;2.60;;;5.00;99.90;;;;;;5025465;28;20287;-83
2023/03/05 12:10:25;;;;;;;5.07;1.97;;;5.10;99.90;;;;;;5027097;28;20208;-82
2023/03/05 12:12:59;;;;;;;5.80;2.83;;;5.10;99.90;;;;;;5026157;28;20206;-82
2023/03/05 12:15:38;;;;;;;4.87;1.77;;;5.30;99.90;;;;;;5024930;28;20199;-83
2023/03/05 12:18:19;;;;;;;4.83;1.83;;;5.30;99.90;;;;;;5029308;28;20227;-83
2023/03/05 12:20:55;;;;;;;4.93;2.47;;;5.50;99.90;;;;;;5025557;28;20211;-83
2023/03/05 12:23:25;;;;;;;6.00;2.37;;;5.70;99.90;;;;;;5024399;28;20207;-83
2023/03/05 12:25:55;;;;;;;7.70;1.97;;;5.90;99.90;;;;;;5022568;28;20316;-83
2023/03/05 12:28:53;;;;;;;2.97;2.10;;;6.60;99.90;;;;;;5025855;28;20964;-83
2023/03/05 12:31:33;;;;;;;4.67;2.50;;;6.50;99.90;;;;;;5017469;28;20209;-84
2023/03/05 12:34:20;;;;;;;4.37;2.47;;;6.30;99.90;;;;;;5040610;28;20194;-83
2023/03/05 12:36:47;;;;;;;5.13;3.70;;;6.10;99.90;;;;;;5025505;28;20228;-84
2023/03/05 12:39:48;;;;;;;4.73;2.33;;;6.00;99.90;;;;;;5020145;28;20565;-83
2023/03/05 12:42:47;;;;;;;4.60;1.77;;;5.70;99.90;;;;;;5018733;28;20200;-84
2023/03/05 12:45:35;;;;;;;7.50;3.67;;;5.60;99.90;;;;;;5024929;28;20213;-84
2023/03/05 12:48:39;;;;;;;5.47;3.50;;;5.70;99.90;;;;;;5020783;28;20239;-83
2023/03/05 12:51:06;;;;;;;7.77;3.23;;;5.80;99.90;;;;;;5020521;28;20211;-83
2023/03/05 12:53:33;;;;;;;5.03;2.50;;;6.00;99.90;;;;;;5029387;28;20216;-83
2023/03/05 12:56:10;;;;;;;7.73;2.90;;;6.20;99.90;;;;;;5013551;28;20897;-84
2023/03/05 12:58:42;;;;;;;7.27;3.03;;;6.30;99.90;;;;;;5023360;28;20259;-82
2023/03/05 13:01:23;;;;;;;7.40;3.67;;;6.30;99.90;;;;;;5036396;28;20208;-82
2023/03/05 13:03:54;;;;;;;6.07;2.10;;;6.40;99.90;;;;;;5015841;28;20196;-82
2023/03/05 13:06:27;;;;;;;3.73;1.77;;;6.40;99.90;;;;;;5034137;28;20255;-84
2023/03/05 13:08:59;;;;;;;8.10;2.60;;;6.70;99.90;;;;;;5022446;28;20230;-84